Time;durP1;ratioP1;P1;durP2;ratioP2;P2;SDS_P1;SDS_P2;PMS_P1;PMS_P2;Temp;Humidity;BMP_temperature;BMP_pressure;BME280_temperature;BME280_humidity;BME280_pressure;Samples;Min_cycle;Max_cycle;Signal;HPM_P1;HPM_P2
2022/06/16 05:32:09;;;;;;;16.87;15.90;;;20.10;99.90;;;;;;5924243;23;20505;-69
2022/06/16 05:34:36;;;;;;;16.40;15.60;;;21.10;99.90;;;;;;4964099;28;20482;-71
2022/06/16 05:37:03;;;;;;;15.80;14.90;;;21.60;99.90;;;;;;4953903;28;20492;-70
2022/06/16 05:39:30;;;;;;;15.63;14.80;;;22.00;99.90;;;;;;4952308;28;21007;-70
2022/06/16 05:41:57;;;;;;;15.33;14.53;;;22.10;99.90;;;;;;4958859;28;20484;-70
2022/06/16 05:44:24;;;;;;;16.47;15.47;;;22.00;99.90;;;;;;4952125;29;20863;-73
2022/06/16 05:46:50;;;;;;;16.30;15.50;;;22.40;99.90;;;;;;4952198;29;20455;-70
2022/06/16 05:49:21;;;;;;;16.17;15.37;;;22.50;99.90;;;;;;4952048;29;21001;-70
2022/06/16 05:51:48;;;;;;;17.10;15.93;;;22.40;99.90;;;;;;4952017;29;20507;-70
2022/06/16 05:54:15;;;;;;;16.77;15.97;;;22.50;99.90;;;;;;4952150;29;20464;-70
2022/06/16 05:56:41;;;;;;;15.83;15.13;;;22.40;99.90;;;;;;4952038;29;20456;-71
2022/06/16 05:59:11;;;;;;;15.13;14.37;;;22.30;99.90;;;;;;4952013;29;20448;-70
2022/06/16 06:01:38;;;;;;;16.60;15.70;;;22.30;99.90;;;;;;4952080;29;20461;-70
2022/06/16 06:04:05;;;;;;;15.53;14.63;;;22.40;99.90;;;;;;4951986;29;20487;-70
2022/06/16 06:06:33;;;;;;;17.00;16.00;;;22.60;99.80;;;;;;4952159;29;20472;-70
2022/06/16 06:17:19;;;;;;;16.00;15.07;;;23.20;98.80;;;;;;4951781;29;20444;-70
2022/06/16 06:19:45;;;;;;;16.30;15.50;;;23.00;98.20;;;;;;4951783;29;20459;-71
2022/06/16 06:22:16;;;;;;;14.90;14.10;;;23.30;99.10;;;;;;4951593;29;20460;-71
2022/06/16 06:24:44;;;;;;;16.13;15.20;;;24.40;96.00;;;;;;4951267;28;20461;-71
2022/06/16 06:27:14;;;;;;;15.77;15.00;;;25.10;93.60;;;;;;4959409;28;20817;-70
2022/06/16 06:29:41;;;;;;;15.43;14.63;;;25.40;92.80;;;;;;4959425;28;20574;-71
2022/06/16 06:32:09;;;;;;;15.53;14.73;;;25.50;91.90;;;;;;4946455;28;20492;-70
2022/06/16 06:34:36;;;;;;;14.60;13.90;;;25.90;91.00;;;;;;4941651;29;20454;-70
2022/06/16 06:37:03;;;;;;;15.20;14.30;;;26.00;90.80;;;;;;4939655;29;20449;-71
2022/06/16 06:39:31;;;;;;;15.83;14.63;;;26.60;90.40;;;;;;4936397;29;20449;-70
2022/06/16 06:41:57;;;;;;;15.27;14.37;;;27.30;86.10;;;;;;4946014;29;20679;-71
2022/06/16 06:44:24;;;;;;;15.93;14.73;;;27.90;82.60;;;;;;4936471;29;20457;-72
2022/06/16 06:46:51;;;;;;;15.33;14.63;;;28.60;78.50;;;;;;4936163;29;20457;-71
2022/06/16 06:49:18;;;;;;;15.80;14.97;;;29.20;76.80;;;;;;4936134;29;20489;-70
2022/06/16 06:51:45;;;;;;;15.33;14.53;;;29.20;73.60;;;;;;4940457;29;20822;-71
2022/06/16 06:54:11;;;;;;;15.73;15.00;;;28.90;75.30;;;;;;4955446;29;20456;-70
2022/06/16 06:56:40;;;;;;;15.70;15.00;;;29.20;74.90;;;;;;4954908;29;20472;-72
2022/06/16 06:59:10;;;;;;;16.30;15.50;;;29.50;74.20;;;;;;4955361;29;20459;-72
2022/06/16 07:01:37;;;;;;;15.90;15.00;;;29.90;71.00;;;;;;4953760;29;20543;-72
2022/06/16 07:04:04;;;;;;;16.17;15.37;;;30.60;71.90;;;;;;4936146;29;20453;-72
2022/06/16 07:06:31;;;;;;;15.00;14.30;;;31.30;68.20;;;;;;4936027;29;20457;-72
2022/06/16 07:08:58;;;;;;;14.77;13.87;;;31.00;66.70;;;;;;4935623;29;21177;-71
2022/06/16 07:11:25;;;;;;;15.87;15.03;;;30.40;66.80;;;;;;4935830;29;20472;-71
2022/06/16 07:13:53;;;;;;;15.13;14.47;;;30.50;66.80;;;;;;4935702;29;20451;-72
2022/06/16 07:16:21;;;;;;;15.90;15.20;;;30.30;66.20;;;;;;4935552;29;20453;-72
2022/06/16 07:18:48;;;;;;;15.30;14.50;;;30.90;63.50;;;;;;4935507;29;20495;-72
2022/06/16 07:21:15;;;;;;;15.27;14.57;;;30.70;65.10;;;;;;4935425;29;20457;-72
2022/06/16 07:23:42;;;;;;;15.90;15.20;;;31.00;62.40;;;;;;4935364;29;20477;-72
2022/06/16 07:26:10;;;;;;;16.13;15.13;;;31.50;61.50;;;;;;4935149;29;20450;-72
2022/06/16 07:28:37;;;;;;;16.13;14.90;;;32.40;58.40;;;;;;4935514;29;20464;-72
2022/06/16 07:31:05;;;;;;;15.77;15.07;;;32.70;56.30;;;;;;4935206;29;21013;-72
2022/06/16 07:33:32;;;;;;;16.60;15.90;;;33.00;55.90;;;;;;4935326;29;21029;-73
2022/06/16 07:35:59;;;;;;;14.67;14.07;;;33.80;53.40;;;;;;4935281;29;20477;-72
2022/06/16 07:38:27;;;;;;;16.60;15.80;;;33.70;52.70;;;;;;4934963;29;20891;-72
2022/06/16 07:41:30;;;;;;;16.67;15.90;;;33.20;53.60;;;;;;4935372;29;20461;-71
2022/06/16 07:43:41;;;;;;;14.47;13.87;;;33.30;54.00;;;;;;4945327;29;20506;-72
2022/06/16 07:46:09;;;;;;;17.03;16.30;;;33.30;53.80;;;;;;4934313;29;20540;-71
2022/06/16 07:48:36;;;;;;;16.40;15.70;;;33.20;53.70;;;;;;4942613;29;20495;-69
2022/06/16 07:51:03;;;;;;;16.93;15.93;;;32.50;55.50;;;;;;4954490;29;20480;-69
2022/06/16 07:53:30;;;;;;;17.37;16.47;;;32.60;55.60;;;;;;4954064;28;20445;-69
2022/06/16 07:55:57;;;;;;;15.97;15.27;;;33.00;55.20;;;;;;4956371;28;20986;-69
2022/06/16 07:58:29;;;;;;;20.70;18.80;;;32.90;56.30;;;;;;4970904;28;20451;-69
2022/06/16 08:00:56;;;;;;;16.77;15.97;;;32.80;56.50;;;;;;4954134;29;20552;-69
2022/06/16 08:03:26;;;;;;;15.73;14.93;;;32.70;56.50;;;;;;4954222;29;20467;-69
2022/06/16 08:05:53;;;;;;;17.37;16.37;;;32.50;56.60;;;;;;4954077;29;20461;-69
2022/06/16 08:08:22;;;;;;;17.37;16.37;;;32.80;56.40;;;;;;4954214;29;20505;-69
2022/06/16 08:10:49;;;;;;;17.33;16.43;;;33.50;55.60;;;;;;4954166;28;20898;-69
2022/06/16 08:13:15;;;;;;;16.10;15.30;;;33.50;54.20;;;;;;4953573;29;20461;-69
2022/06/16 08:15:45;;;;;;;16.67;15.97;;;33.40;54.90;;;;;;4954255;29;20453;-69
2022/06/16 08:18:13;;;;;;;17.47;16.57;;;33.60;54.40;;;;;;4944232;29;20463;-69
2022/06/16 08:20:42;;;;;;;17.50;16.60;;;34.30;53.60;;;;;;4942597;29;20808;-70
2022/06/16 08:23:10;;;;;;;16.40;15.60;;;34.70;53.10;;;;;;4942292;29;20505;-70
2022/06/16 08:25:37;;;;;;;16.30;15.70;;;35.50;51.80;;;;;;4942799;29;20452;-70
2022/06/16 08:28:05;;;;;;;16.70;16.00;;;35.90;50.90;;;;;;4943807;29;20456;-70
2022/06/16 08:30:32;;;;;;;16.23;15.60;;;35.90;50.10;;;;;;4941730;29;21062;-69
2022/06/16 08:32:59;;;;;;;16.60;15.30;;;34.90;49.30;;;;;;4941808;29;20480;-69
2022/06/16 08:35:26;;;;;;;17.57;16.60;;;35.00;50.40;;;;;;4943194;29;20460;-69
2022/06/16 08:37:54;;;;;;;16.13;15.37;;;35.20;49.90;;;;;;4942041;29;20936;-69
2022/06/16 08:40:21;;;;;;;17.80;16.80;;;35.20;50.20;;;;;;4941959;29;20452;-70
2022/06/16 08:42:51;;;;;;;15.67;14.80;;;35.80;49.10;;;;;;4943011;29;20912;-69
2022/06/16 08:45:27;;;;;;;16.60;15.80;;;34.50;47.40;;;;;;4942484;29;20497;-69
2022/06/16 08:48:08;;;;;;;16.03;15.13;;;34.30;47.70;;;;;;4941641;29;20457;-69
2022/06/16 08:50:38;;;;;;;15.27;14.57;;;34.70;48.50;;;;;;4942003;29;20481;-69
2022/06/16 08:53:19;;;;;;;15.87;15.07;;;34.50;48.90;;;;;;4941145;29;20812;-69
2022/06/16 08:55:54;;;;;;;17.90;16.83;;;34.50;48.80;;;;;;4941113;29;20466;-69
2022/06/16 08:58:31;;;;;;;16.93;16.03;;;33.20;49.30;;;;;;4941566;29;20452;-69
2022/06/16 09:01:02;;;;;;;15.50;14.40;;;32.60;50.20;;;;;;4941913;29;20688;-69
2022/06/16 09:03:37;;;;;;;16.07;15.10;;;32.90;50.40;;;;;;4940946;29;20458;-70
2022/06/16 09:06:16;;;;;;;15.67;15.07;;;34.00;49.50;;;;;;4941132;29;20806;-70
2022/06/16 09:08:53;;;;;;;15.60;14.80;;;34.50;47.00;;;;;;4942861;29;20449;-69
2022/06/16 09:11:26;;;;;;;14.37;13.77;;;35.00;46.70;;;;;;4942450;29;20485;-70
2022/06/16 09:14:08;;;;;;;17.00;16.27;;;35.80;45.20;;;;;;4941507;29;20906;-69
2022/06/16 09:16:48;;;;;;;16.20;15.30;;;36.50;44.20;;;;;;4941881;29;20446;-68
2022/06/16 09:19:42;;;;;;;16.37;15.67;;;36.70;43.50;;;;;;4941586;29;20814;-69
2022/06/16 09:22:23;;;;;;;16.17;15.47;;;37.20;42.40;;;;;;4942692;29;20952;-68
2022/06/16 09:25:25;;;;;;;16.97;15.97;;;37.10;42.50;;;;;;4942098;29;20444;-69
2022/06/16 09:27:56;;;;;;;17.33;16.43;;;36.50;42.90;;;;;;4892406;29;20444;-69
2022/06/16 09:30:27;;;;;;;16.30;15.50;;;36.80;43.10;;;;;;4942850;28;20489;-69
2022/06/16 09:33:03;;;;;;;16.97;16.03;;;36.80;43.10;;;;;;4941323;29;20525;-70
2022/06/16 09:35:33;;;;;;;16.30;15.60;;;36.40;44.00;;;;;;4941218;29;20453;-69
2022/06/16 09:38:04;;;;;;;16.83;16.00;;;35.90;44.70;;;;;;4944522;29;20448;-69
2022/06/16 09:40:35;;;;;;;16.50;15.80;;;35.80;45.50;;;;;;4943407;29;20460;-69
2022/06/16 09:43:10;;;;;;;16.90;16.00;;;35.90;44.50;;;;;;4941364;29;20450;-69
2022/06/16 09:45:42;;;;;;;16.47;15.57;;;36.10;45.00;;;;;;4939658;29;20800;-69
2022/06/16 09:48:14;;;;;;;16.50;15.70;;;36.40;43.60;;;;;;4937468;29;20473;-69
2022/06/16 09:50:47;;;;;;;16.27;15.60;;;36.10;43.70;;;;;;4952356;29;20495;-69
2022/06/16 09:53:20;;;;;;;16.30;15.20;;;36.20;44.70;;;;;;4952327;29;20456;-69
2022/06/16 09:55:52;;;;;;;17.23;16.43;;;36.60;44.70;;;;;;4952630;29;20456;-69
2022/06/16 09:58:27;;;;;;;16.30;15.60;;;36.00;45.60;;;;;;4933389;29;20795;-69
2022/06/16 10:00:56;;;;;;;17.00;16.13;;;36.10;44.70;;;;;;4933210;29;20986;-69
2022/06/16 10:03:28;;;;;;;17.23;16.33;;;35.00;46.30;;;;;;4933348;29;20460;-69
2022/06/16 10:06:10;;;;;;;17.67;16.77;;;35.20;46.90;;;;;;4944821;29;20448;-69
2022/06/16 10:08:44;;;;;;;17.27;16.37;;;35.70;45.80;;;;;;4952328;28;20822;-70
2022/06/16 10:11:19;;;;;;;16.63;15.73;;;34.90;46.80;;;;;;4952246;29;20499;-69
2022/06/16 10:13:54;;;;;;;15.33;14.63;;;34.30;47.80;;;;;;4952111;29;20824;-69
2022/06/16 10:16:28;;;;;;;16.53;15.77;;;33.90;48.70;;;;;;4952635;29;20464;-69
2022/06/16 10:18:55;;;;;;;16.53;15.50;;;34.30;49.20;;;;;;4952332;29;20457;-69
2022/06/16 10:21:22;;;;;;;15.73;14.93;;;34.80;48.10;;;;;;4952674;29;20812;-69
2022/06/16 10:23:52;;;;;;;16.20;15.40;;;35.10;47.50;;;;;;4952212;29;20448;-70
2022/06/16 10:26:20;;;;;;;16.00;15.30;;;35.40;47.50;;;;;;4952369;28;20500;-69
2022/06/16 10:29:03;;;;;;;17.37;16.47;;;35.40;47.40;;;;;;4950344;28;21596;-70
2022/06/16 10:31:40;;;;;;;15.90;15.00;;;35.70;47.30;;;;;;4951724;28;20579;-69
2022/06/16 10:34:18;;;;;;;15.57;14.90;;;35.30;47.20;;;;;;4951805;28;20507;-69
2022/06/16 10:36:54;;;;;;;15.93;15.13;;;35.70;46.80;;;;;;4951799;29;20478;-69
2022/06/16 10:39:24;;;;;;;15.20;14.60;;;36.00;46.10;;;;;;4951708;29;20810;-69
2022/06/16 10:41:57;;;;;;;15.40;14.60;;;35.80;47.10;;;;;;4952091;29;20512;-69
2022/06/16 10:44:28;;;;;;;16.03;15.33;;;35.60;46.80;;;;;;4951870;28;20456;-69
2022/06/16 10:46:58;;;;;;;16.17;15.47;;;35.80;46.90;;;;;;4970317;28;20798;-69
2022/06/16 10:49:29;;;;;;;15.90;15.00;;;36.10;47.20;;;;;;4958837;28;20913;-70
2022/06/16 10:51:59;;;;;;;15.53;14.73;;;37.10;45.80;;;;;;4952184;29;20484;-70
2022/06/16 10:54:31;;;;;;;17.37;16.47;;;36.80;45.60;;;;;;4952043;29;20460;-70
2022/06/16 10:57:16;;;;;;;16.00;15.10;;;37.40;45.60;;;;;;4951631;29;20471;-70
2022/06/16 10:59:48;;;;;;;16.00;15.20;;;37.60;44.50;;;;;;4951890;29;20486;-70
2022/06/16 11:02:22;;;;;;;16.17;15.57;;;37.30;44.30;;;;;;4951834;29;20467;-70
2022/06/16 11:04:55;;;;;;;15.73;14.83;;;37.40;44.20;;;;;;4951958;29;20460;-70
2022/06/16 11:07:23;;;;;;;15.67;14.90;;;37.40;44.00;;;;;;4951672;29;20949;-71
2022/06/16 11:09:52;;;;;;;17.57;16.73;;;37.50;43.60;;;;;;4951552;29;20463;-70
2022/06/16 11:12:23;;;;;;;16.07;15.23;;;37.90;43.50;;;;;;4952393;29;20452;-70
2022/06/16 11:14:55;;;;;;;15.60;14.73;;;37.60;42.50;;;;;;4952215;29;20529;-70
2022/06/16 11:17:26;;;;;;;15.90;15.10;;;36.50;43.40;;;;;;4952034;29;20456;-70
2022/06/16 11:20:00;;;;;;;15.87;15.00;;;36.30;44.30;;;;;;4951791;29;20950;-70
2022/06/16 11:22:31;;;;;;;16.50;15.63;;;36.20;45.30;;;;;;4954720;29;20444;-70
2022/06/16 11:25:03;;;;;;;16.90;16.10;;;36.80;44.10;;;;;;4955167;29;20508;-70
2022/06/16 11:27:39;;;;;;;17.47;16.13;;;36.90;43.10;;;;;;4954880;29;20445;-70
2022/06/16 11:30:29;;;;;;;15.47;14.73;;;36.50;43.60;;;;;;4955129;29;20832;-70
2022/06/16 11:32:56;;;;;;;15.43;14.87;;;36.60;43.40;;;;;;4954927;29;20488;-70
2022/06/16 11:35:30;;;;;;;17.47;16.27;;;36.30;42.90;;;;;;4954723;29;20962;-70
2022/06/16 11:38:02;;;;;;;16.03;15.33;;;35.80;44.20;;;;;;4954971;29;20464;-70
2022/06/16 11:40:40;;;;;;;17.47;16.67;;;35.30;45.00;;;;;;4954994;29;20453;-70
2022/06/16 11:43:35;;;;;;;16.77;15.87;;;35.50;45.80;;;;;;4954473;29;20472;-70
2022/06/16 11:46:08;;;;;;;15.67;15.07;;;36.10;44.00;;;;;;4954635;29;20951;-70
2022/06/16 11:48:51;;;;;;;16.20;15.40;;;36.10;43.70;;;;;;4954909;29;20516;-70
2022/06/16 11:51:28;;;;;;;16.73;16.03;;;35.90;43.20;;;;;;4954430;29;20595;-70
2022/06/16 11:54:06;;;;;;;17.20;16.30;;;35.60;44.30;;;;;;4954898;29;20525;-70
2022/06/16 11:56:41;;;;;;;16.10;15.40;;;35.50;44.40;;;;;;4954709;29;20464;-70
2022/06/16 11:59:25;;;;;;;17.73;16.50;;;35.60;45.00;;;;;;4954502;29;20954;-70
2022/06/16 12:01:56;;;;;;;16.17;15.07;;;35.30;45.70;;;;;;4954581;29;20962;-70
2022/06/16 12:04:49;;;;;;;16.70;15.80;;;35.50;44.90;;;;;;4954291;29;21311;-70
2022/06/16 12:07:36;;;;;;;16.77;15.67;;;35.50;44.30;;;;;;4951344;29;20496;-70
2022/06/16 12:10:11;;;;;;;16.57;15.63;;;34.90;44.30;;;;;;4954652;29;20464;-69
2022/06/16 12:12:43;;;;;;;14.70;14.10;;;35.20;44.50;;;;;;4954500;29;20456;-69
2022/06/16 12:15:26;;;;;;;16.73;15.83;;;35.70;44.20;;;;;;4954159;29;20459;-70
2022/06/16 12:18:03;;;;;;;16.67;15.83;;;35.30;42.90;;;;;;4954590;29;20520;-69
2022/06/16 12:20:37;;;;;;;15.30;14.40;;;35.20;43.80;;;;;;4954078;29;20953;-70
2022/06/16 12:23:10;;;;;;;16.30;15.60;;;35.00;44.20;;;;;;4954570;29;20464;-70
2022/06/16 12:25:45;;;;;;;15.93;14.93;;;34.90;45.00;;;;;;4954493;29;20565;-69
2022/06/16 12:28:19;;;;;;;17.20;16.40;;;35.20;44.70;;;;;;4954272;29;20567;-70
2022/06/16 12:30:53;;;;;;;15.57;14.60;;;35.60;44.30;;;;;;4953988;28;20493;-70
2022/06/16 12:33:29;;;;;;;16.97;16.30;;;35.70;42.70;;;;;;4953212;28;20496;-70
2022/06/16 12:36:02;;;;;;;18.03;17.30;;;35.90;42.50;;;;;;4954205;29;20460;-70
2022/06/16 12:38:33;;;;;;;15.50;14.70;;;36.70;41.80;;;;;;4953919;29;20887;-70
2022/06/16 12:41:05;;;;;;;16.27;15.60;;;36.20;41.60;;;;;;4953740;29;20479;-70
2022/06/16 12:43:35;;;;;;;16.17;15.37;;;35.90;41.80;;;;;;4953468;29;20460;-70
2022/06/16 12:46:06;;;;;;;16.93;15.63;;;35.80;42.50;;;;;;4953819;29;20969;-70
2022/06/16 12:48:41;;;;;;;16.63;15.70;;;35.80;43.40;;;;;;4953848;29;20470;-70
2022/06/16 12:51:14;;;;;;;16.70;15.77;;;36.20;43.00;;;;;;4953630;29;20499;-70
2022/06/16 12:53:46;;;;;;;14.93;14.33;;;34.90;41.70;;;;;;4953585;29;20461;-70
2022/06/16 12:56:20;;;;;;;16.67;15.70;;;34.80;42.40;;;;;;4953629;29;20460;-69
2022/06/16 12:58:51;;;;;;;15.13;14.33;;;35.10;42.60;;;;;;4953614;29;20460;-69
2022/06/16 13:01:19;;;;;;;15.90;15.17;;;35.20;41.70;;;;;;4953608;29;20451;-71
2022/06/16 13:03:54;;;;;;;15.70;14.90;;;34.10;42.40;;;;;;4953500;29;20479;-71
2022/06/16 13:06:23;;;;;;;15.63;14.73;;;34.10;42.80;;;;;;4953654;29;20448;-70
2022/06/16 13:08:53;;;;;;;15.57;14.77;;;34.50;41.20;;;;;;4953523;29;20456;-71
2022/06/16 13:11:23;;;;;;;15.27;14.47;;;34.60;42.30;;;;;;4953607;29;20597;-71
2022/06/16 13:13:54;;;;;;;15.77;14.93;;;35.20;42.30;;;;;;4953478;29;20448;-71
2022/06/16 13:16:27;;;;;;;14.73;14.00;;;35.00;42.70;;;;;;4951169;28;20453;-70
2022/06/16 13:19:00;;;;;;;13.60;12.90;;;35.30;42.10;;;;;;4953205;29;20459;-70
2022/06/16 13:21:31;;;;;;;14.90;14.10;;;35.20;40.40;;;;;;4953217;29;20971;-70
2022/06/16 13:24:10;;;;;;;14.60;13.90;;;34.80;41.20;;;;;;4953013;29;20469;-71
2022/06/16 13:26:41;;;;;;;16.07;15.43;;;34.90;41.20;;;;;;4953340;28;20444;-70
2022/06/16 13:29:15;;;;;;;15.50;14.80;;;34.90;38.90;;;;;;4953070;28;20942;-70
2022/06/16 13:32:00;;;;;;;15.50;14.80;;;34.80;39.40;;;;;;4952894;28;21007;-70
2022/06/16 13:34:51;;;;;;;15.23;14.73;;;34.90;39.70;;;;;;4953182;29;20444;-70
2022/06/16 13:37:38;;;;;;;15.20;14.40;;;34.80;40.00;;;;;;4953128;28;20468;-71
2022/06/16 13:40:29;;;;;;;14.60;13.70;;;35.00;38.90;;;;;;4953037;29;20470;-71
2022/06/16 13:43:10;;;;;;;13.90;13.20;;;34.20;37.80;;;;;;4953196;28;20456;-70
2022/06/16 13:45:59;;;;;;;15.23;14.53;;;34.10;37.40;;;;;;4951789;29;20456;-70
2022/06/16 13:48:48;;;;;;;14.43;13.83;;;34.30;36.70;;;;;;4952724;29;20459;-70
2022/06/16 13:51:39;;;;;;;14.30;13.70;;;34.10;36.30;;;;;;4953087;29;20483;-70
2022/06/16 13:54:07;;;;;;;14.83;14.23;;;33.60;37.20;;;;;;4953096;28;20459;-70
2022/06/16 13:56:38;;;;;;;13.80;13.20;;;33.80;36.60;;;;;;4952780;29;20464;-70
2022/06/16 13:59:16;;;;;;;14.30;13.67;;;34.00;37.50;;;;;;4953094;29;20445;-70
2022/06/16 14:02:08;;;;;;;14.80;14.20;;;34.50;38.00;;;;;;4952649;29;20996;-70
2022/06/16 14:04:45;;;;;;;13.80;13.10;;;33.80;38.90;;;;;;4952866;29;20452;-70
2022/06/16 14:07:14;;;;;;;14.80;14.13;;;33.60;39.60;;;;;;4952346;29;20467;-70
2022/06/16 14:09:50;;;;;;;14.47;13.77;;;33.50;40.00;;;;;;4952501;29;20448;-71
2022/06/16 14:12:21;;;;;;;14.50;13.87;;;33.30;40.20;;;;;;4952429;29;20483;-69
2022/06/16 14:15:05;;;;;;;14.77;13.80;;;33.00;40.70;;;;;;4952485;29;20947;-70
2022/06/16 14:17:34;;;;;;;15.23;14.63;;;33.10;40.60;;;;;;4952172;29;20471;-70
2022/06/16 14:20:08;;;;;;;15.40;14.43;;;32.70;42.00;;;;;;4952499;29;20455;-70
2022/06/16 14:22:37;;;;;;;14.47;13.70;;;33.20;42.20;;;;;;4953046;29;20546;-70
2022/06/16 14:25:10;;;;;;;15.80;14.80;;;33.50;42.10;;;;;;4952858;29;20452;-70
2022/06/16 14:27:44;;;;;;;14.73;13.93;;;33.60;42.50;;;;;;4952681;29;20460;-70
2022/06/16 14:30:13;;;;;;;14.23;13.63;;;33.20;41.50;;;;;;4952806;29;20846;-70
2022/06/16 14:32:44;;;;;;;13.97;13.17;;;32.70;42.00;;;;;;4952267;28;21048;-70
2022/06/16 14:35:18;;;;;;;13.70;13.00;;;32.60;41.50;;;;;;4952053;29;20456;-70
2022/06/16 14:37:52;;;;;;;14.20;13.60;;;32.30;42.00;;;;;;4952391;29;20461;-70
2022/06/16 14:40:24;;;;;;;13.80;13.20;;;32.30;43.30;;;;;;4952571;29;20484;-70
2022/06/16 14:42:52;;;;;;;14.70;13.97;;;32.20;42.30;;;;;;4948941;29;20951;-70
2022/06/16 14:45:30;;;;;;;15.20;14.30;;;32.10;43.20;;;;;;4940673;29;20454;-71
2022/06/16 14:48:02;;;;;;;15.80;14.80;;;32.10;43.90;;;;;;4940407;29;20454;-70
2022/06/16 14:50:35;;;;;;;15.77;14.97;;;32.00;44.20;;;;;;4940865;29;20922;-71
2022/06/16 14:53:09;;;;;;;14.43;13.73;;;31.90;43.70;;;;;;4940964;29;20487;-71
2022/06/16 14:55:48;;;;;;;15.30;14.60;;;32.00;43.90;;;;;;4941078;29;20456;-71
2022/06/16 14:58:15;;;;;;;14.80;14.20;;;31.80;44.60;;;;;;4944300;29;20469;-70
2022/06/16 15:00:44;;;;;;;14.23;13.73;;;31.80;44.00;;;;;;4945469;29;21227;-69
2022/06/16 15:03:14;;;;;;;15.00;14.30;;;31.70;44.70;;;;;;4945687;29;20859;-70
2022/06/16 15:05:43;;;;;;;14.37;13.77;;;31.60;44.50;;;;;;4944193;29;20456;-70
2022/06/16 15:08:18;;;;;;;15.00;14.30;;;31.40;44.00;;;;;;4944412;29;20885;-69
2022/06/16 15:10:46;;;;;;;15.13;14.43;;;30.80;44.10;;;;;;4951041;29;20455;-70
2022/06/16 15:13:13;;;;;;;15.20;14.40;;;30.60;44.60;;;;;;4955585;29;20491;-70
2022/06/16 15:15:41;;;;;;;14.57;13.87;;;30.40;44.50;;;;;;4955350;29;20452;-70
2022/06/16 15:18:13;;;;;;;14.83;14.13;;;30.20;44.90;;;;;;4955659;29;20479;-70
2022/06/16 15:20:47;;;;;;;13.70;13.00;;;29.90;45.10;;;;;;4955459;29;20500;-70
2022/06/16 15:23:15;;;;;;;15.10;14.30;;;29.70;45.90;;;;;;4955259;29;20464;-70
2022/06/16 15:25:45;;;;;;;15.37;14.47;;;29.60;46.10;;;;;;4955460;29;20459;-70
2022/06/16 15:28:19;;;;;;;15.10;14.20;;;29.60;46.20;;;;;;4955182;29;20452;-70
2022/06/16 15:30:48;;;;;;;14.73;14.03;;;29.30;46.00;;;;;;4955194;28;20970;-70
2022/06/16 15:36:10;;;;;;;15.20;14.23;;;29.20;46.50;;;;;;4955563;29;20565;-70
2022/06/16 15:38:38;;;;;;;14.10;13.50;;;29.20;46.60;;;;;;4955473;29;20475;-70
2022/06/16 15:41:27;;;;;;;14.83;14.17;;;29.30;46.80;;;;;;4955315;29;20982;-70
2022/06/16 15:44:01;;;;;;;13.73;13.00;;;29.40;46.60;;;;;;4954787;29;20449;-70
2022/06/16 15:46:28;;;;;;;14.17;13.47;;;29.30;46.60;;;;;;4955296;29;20456;-70
2022/06/16 15:48:58;;;;;;;13.97;13.27;;;29.20;47.40;;;;;;4955200;29;20464;-71
2022/06/16 15:51:26;;;;;;;14.13;13.53;;;29.20;47.90;;;;;;4954955;29;20471;-70
2022/06/16 15:53:53;;;;;;;16.40;15.43;;;29.30;48.40;;;;;;4954914;29;20456;-69
2022/06/16 15:56:23;;;;;;;15.00;14.30;;;29.40;48.40;;;;;;4954955;29;20957;-69
2022/06/16 15:58:59;;;;;;;14.40;13.70;;;29.50;47.50;;;;;;4955053;29;20456;-68
2022/06/16 16:01:28;;;;;;;14.50;13.80;;;29.40;47.80;;;;;;4954727;29;20479;-70
2022/06/16 16:03:55;;;;;;;14.40;13.80;;;29.50;47.80;;;;;;4954880;29;20448;-69
2022/06/16 16:06:21;;;;;;;14.13;13.33;;;29.50;47.70;;;;;;4954559;28;20456;-69
2022/06/16 16:08:50;;;;;;;15.00;14.20;;;29.50;47.00;;;;;;4953836;29;20459;-69
2022/06/16 16:11:23;;;;;;;13.80;13.10;;;29.40;47.00;;;;;;4954561;29;20954;-69
2022/06/16 16:13:59;;;;;;;14.53;13.80;;;29.20;47.20;;;;;;4953387;29;20460;-69
2022/06/16 16:16:26;;;;;;;15.00;14.00;;;29.20;47.20;;;;;;4944493;29;20451;-69
2022/06/16 16:19:08;;;;;;;14.40;13.80;;;29.20;47.10;;;;;;4943298;29;20449;-69
2022/06/16 16:21:39;;;;;;;14.63;13.93;;;29.20;47.00;;;;;;4943656;29;20500;-69
2022/06/16 16:24:09;;;;;;;14.93;14.20;;;29.10;47.30;;;;;;4943028;29;20457;-69
2022/06/16 16:26:36;;;;;;;15.50;14.90;;;29.10;47.40;;;;;;4943410;29;20930;-68
2022/06/16 16:29:06;;;;;;;13.70;13.10;;;29.00;47.40;;;;;;4944468;29;20460;-70
2022/06/16 16:31:41;;;;;;;14.03;13.23;;;28.90;47.20;;;;;;4942828;28;20576;-69
2022/06/16 16:34:09;;;;;;;14.27;13.37;;;28.80;46.70;;;;;;4942254;29;20525;-69
2022/06/16 16:36:38;;;;;;;13.70;12.90;;;28.90;46.40;;;;;;4943662;29;20456;-70
2022/06/16 16:39:25;;;;;;;13.80;13.20;;;29.00;46.70;;;;;;4944043;29;20452;-70
2022/06/16 16:45:14;;;;;;;13.73;13.13;;;29.00;45.60;;;;;;4941469;29;21194;-69
2022/06/16 16:48:12;;;;;;;14.10;13.20;;;28.90;45.70;;;;;;4943508;29;20449;-69
2022/06/16 16:50:42;;;;;;;14.80;14.10;;;28.90;46.30;;;;;;4884814;29;20454;-68
2022/06/16 16:53:12;;;;;;;14.63;14.03;;;28.80;46.30;;;;;;4930187;29;20489;-69
2022/06/16 16:55:41;;;;;;;13.47;12.67;;;28.70;46.30;;;;;;4942675;29;20465;-68
2022/06/16 16:58:08;;;;;;;14.80;14.00;;;28.70;46.30;;;;;;4944498;29;20441;-68
2022/06/16 17:00:38;;;;;;;13.93;13.07;;;28.80;46.20;;;;;;4942679;29;20476;-70
2022/06/16 17:03:06;;;;;;;14.20;13.60;;;28.60;44.50;;;;;;4941207;29;20456;-70
2022/06/16 17:05:32;;;;;;;14.70;13.90;;;28.60;44.50;;;;;;4950439;29;20457;-70
2022/06/16 17:07:59;;;;;;;12.53;11.93;;;28.50;44.30;;;;;;4953312;29;20459;-69
2022/06/16 17:10:27;;;;;;;13.40;12.70;;;28.40;44.10;;;;;;4945477;29;20445;-70
2022/06/16 17:12:58;;;;;;;13.67;12.43;;;28.50;44.70;;;;;;4942789;29;20489;-69
2022/06/16 17:15:25;;;;;;;12.67;12.17;;;28.40;43.90;;;;;;4941869;29;20469;-69
2022/06/16 17:17:53;;;;;;;13.67;13.07;;;28.30;43.70;;;;;;4943697;29;20460;-70
2022/06/16 17:20:22;;;;;;;13.63;12.73;;;28.30;43.70;;;;;;4941099;29;20450;-70
2022/06/16 17:22:49;;;;;;;14.17;13.37;;;28.20;43.40;;;;;;4941761;29;21033;-70
2022/06/16 17:25:17;;;;;;;14.80;13.70;;;28.10;43.60;;;;;;4943299;29;20943;-69
2022/06/16 17:27:46;;;;;;;14.00;13.30;;;28.10;43.30;;;;;;4942756;29;20467;-70
2022/06/16 17:30:16;;;;;;;14.17;13.20;;;28.10;43.30;;;;;;4942499;29;20540;-70
2022/06/16 17:32:43;;;;;;;11.77;11.17;;;28.00;43.40;;;;;;4940055;29;20496;-70
2022/06/16 17:35:18;;;;;;;10.37;9.80;;;28.00;43.30;;;;;;4941964;29;20457;-69
2022/06/16 17:37:45;;;;;;;13.37;12.73;;;27.90;42.60;;;;;;4941669;29;20881;-69
2022/06/16 17:40:17;;;;;;;13.23;12.67;;;27.80;42.70;;;;;;4941208;29;20452;-69
2022/06/16 17:42:44;;;;;;;13.80;13.30;;;27.80;42.90;;;;;;4941198;29;20448;-69
2022/06/16 17:45:12;;;;;;;12.50;12.00;;;27.70;42.30;;;;;;4941297;29;20459;-70
2022/06/16 17:47:40;;;;;;;14.47;13.77;;;27.70;41.80;;;;;;4942911;29;20835;-69
2022/06/16 17:50:07;;;;;;;14.40;13.60;;;27.80;42.10;;;;;;4935650;29;20452;-69
2022/06/16 18:00:50;;;;;;;12.53;11.83;;;27.90;41.10;;;;;;4933238;29;20848;-70
2022/06/16 18:03:18;;;;;;;12.10;11.57;;;27.90;41.30;;;;;;4933374;29;20458;-70
2022/06/16 18:05:45;;;;;;;12.27;11.70;;;27.80;41.50;;;;;;4933260;29;20575;-70
2022/06/16 18:08:12;;;;;;;12.97;12.37;;;27.80;41.10;;;;;;4932929;29;20891;-69
2022/06/16 18:10:41;;;;;;;12.63;11.93;;;27.80;41.30;;;;;;4933302;29;20480;-70
2022/06/16 18:13:13;;;;;;;12.63;11.97;;;27.70;41.60;;;;;;4932938;29;20485;-69
2022/06/16 18:15:40;;;;;;;12.30;11.80;;;27.60;41.80;;;;;;4933084;29;20944;-69
2022/06/16 18:18:12;;;;;;;12.63;12.00;;;27.50;41.10;;;;;;4933071;29;20449;-70
2022/06/16 18:20:41;;;;;;;12.10;11.40;;;27.40;40.90;;;;;;4933018;29;20458;-69
2022/06/16 18:23:08;;;;;;;10.60;10.20;;;27.30;41.10;;;;;;4932754;29;20927;-69
2022/06/16 18:25:38;;;;;;;12.97;12.37;;;27.20;41.10;;;;;;4933125;29;20453;-70
2022/06/16 18:28:06;;;;;;;12.90;12.20;;;27.10;40.90;;;;;;4932740;29;20492;-70
2022/06/16 18:30:33;;;;;;;11.87;11.17;;;27.00;40.90;;;;;;4933617;29;20461;-69
2022/06/16 18:33:00;;;;;;;11.63;11.13;;;26.90;40.70;;;;;;4940436;29;21037;-69
2022/06/16 18:35:29;;;;;;;11.43;10.93;;;26.80;40.70;;;;;;4944138;29;20449;-70
2022/06/16 18:37:59;;;;;;;11.17;10.47;;;26.70;40.80;;;;;;4944963;29;20451;-69
2022/06/16 18:40:29;;;;;;;12.30;11.40;;;26.60;40.90;;;;;;4945881;29;20447;-69
2022/06/16 18:42:58;;;;;;;12.07;11.47;;;26.60;41.00;;;;;;4944759;29;20448;-69
2022/06/16 18:45:26;;;;;;;11.60;11.20;;;26.50;41.20;;;;;;4943958;29;20457;-69